Disclaimer

Please do not use the information listed here in-flight or in-navigation, as they are not provided to us by the airports but are provided by volunteers, so they might be outdated.

Search


Regions


Airport information page

Radio informations:
Tower (TWR) - 118.05 MHz
AMC OPS - 349.4 MHz
Ground (GND) - 118.05 MHz
Automatic Terminal Information Service (ATIS) - 148.9 MHz
Approach (APP) - 119.9 MHz

Airport informations:
Latitude: 01° 21' 37.50" N
Longitude: 103° 54' 34.31" E
Elevation: 65 feet - 20 meters
Operating hours: Remarks
Operating agency: Military-civil joint use airport
Timezone: UTC+8
Fuel: Jet A1+, Jet A1 with icing inhibitor.

Jet A1, without icing nhibitor.

Runway information:
02/20 - 12401 x 200 feet< - >3780 x 61 meters

Recent METARs:
WSAP 211800Z 31001KT 9999 FEW016 BKN150 26/24 Q1011
WSAP 211900Z 27004KT 8000 TS FEW014 FEW016CB SCT018TCU 26/25 Q1010
WSAP 211905Z 29004KT 4000 +TSRA FEW014CB SCT015TCU 26/25 Q1010

Airport on the map: